Time;durP1;ratioP1;P1;durP2;ratioP2;P2;SDS_P1;SDS_P2;PMS_P1;PMS_P2;Temp;Humidity;BMP_temperature;BMP_pressure;BME280_temperature;BME280_humidity;BME280_pressure;Samples;Min_cycle;Max_cycle;Signal;HPM_P1;HPM_P2
2024/01/22 00:01:05;;;;;;;17.63;7.57;;;;;;;-142.57;76.86;55325.22;5055035;28;20048;-81
2024/01/22 00:03:31;;;;;;;10.90;5.80;;;;;;;-142.57;83.40;55347.44;5055438;28;20028;-82
2024/01/22 00:05:56;;;;;;;12.15;5.38;;;;;;;-142.57;73.36;55321.19;5057662;28;20032;-83
2024/01/22 00:08:22;;;;;;;9.50;4.68;;;;;;;-142.57;76.01;55284.81;5054708;28;20045;-86
2024/01/22 00:10:47;;;;;;;10.98;4.63;;;;;;;-142.57;73.98;55337.34;5054543;28;20029;-87
2024/01/22 00:13:13;;;;;;;9.55;4.90;;;;;;;-142.57;78.10;55373.72;5056545;28;20039;-83
2024/01/22 00:19:04;;;;;;;15.40;5.78;;;;;;;-142.57;70.57;55337.34;5077021;28;20056;-79
2024/01/22 00:21:31;;;;;;;9.63;5.00;;;;;;;-142.57;74.57;55317.16;5078519;28;20021;-82
2024/01/22 00:23:56;;;;;;;10.27;5.85;;;;;;;-142.57;72.44;55325.22;5075119;28;20052;-82
2024/01/22 00:26:22;;;;;;;13.05;6.15;;;;;;;-142.57;73.07;55325.22;5057849;28;20385;-84
2024/01/22 00:28:47;;;;;;;11.90;5.30;;;;;;;-142.57;71.35;55292.91;5055799;28;20033;-81
2024/01/22 00:31:13;;;;;;;10.68;5.72;;;;;;;-142.57;71.07;55266.63;5059481;28;20033;-85
2024/01/22 00:33:39;;;;;;;11.40;5.90;;;;;;;-142.57;70.82;55266.63;5055863;28;20040;-85
2024/01/22 00:36:04;;;;;;;11.98;5.93;;;;;;;-142.57;75.55;55294.94;5057055;28;20452;-82
2024/01/22 00:38:30;;;;;;;17.33;5.88;;;;;;;-142.57;74.44;55309.06;5055704;28;20426;-85
2024/01/22 00:40:56;;;;;;;11.55;5.80;;;;;;;-142.57;73.96;55286.84;5055611;28;20075;-83
2024/01/22 00:43:22;;;;;;;12.20;6.38;;;;;;;-142.57;72.30;55260.56;5055742;28;20029;-86
2024/01/22 00:45:47;;;;;;;14.82;6.82;;;;;;;-142.57;73.98;55246.44;5055433;28;20145;-84
2024/01/22 00:48:12;;;;;;;13.98;7.05;;;;;;;-142.57;73.85;55232.28;5055692;28;20033;-84
2024/01/22 00:50:38;;;;;;;11.80;6.53;;;;;;;-142.57;74.39;55260.56;5058547;28;20083;-85
2024/01/22 00:53:04;;;;;;;14.00;6.35;;;;;;;-142.57;75.10;55292.91;5055811;28;20048;-83
2024/01/22 00:55:29;;;;;;;10.05;5.70;;;;;;;-142.57;75.33;55278.75;5054509;28;20029;-82
2024/01/22 00:57:55;;;;;;;12.05;5.72;;;;;;;-142.57;73.92;55262.59;5054718;28;20033;-85
2024/01/22 01:00:21;;;;;;;12.30;5.05;;;;;;;-142.57;74.64;55256.53;5058186;28;20029;-84
2024/01/22 01:02:50;;;;;;;11.75;6.15;;;;;;;-142.57;74.15;55240.38;5061017;28;20033;-82
2024/01/22 01:05:16;;;;;;;10.23;5.55;;;;;;;-142.57;78.67;55272.69;5068726;28;20047;-83
2024/01/22 01:07:42;;;;;;;10.93;5.93;;;;;;;-142.57;72.02;55272.69;5070168;28;20036;-79
2024/01/22 01:10:07;;;;;;;11.40;5.35;;;;;;;-142.57;71.97;55260.56;5071783;28;20032;-81
2024/01/22 01:12:33;;;;;;;11.75;5.82;;;;;;;-142.57;78.51;55262.59;5070474;28;20516;-81
2024/01/22 01:15:22;;;;;;;12.70;5.60;;;;;;;-142.57;76.36;55266.63;5072615;28;20032;-78
2024/01/22 01:17:47;;;;;;;10.50;5.47;;;;;;;-142.57;74.41;55270.69;5078350;28;20093;-82
2024/01/22 01:20:13;;;;;;;12.10;5.88;;;;;;;-142.57;73.62;55280.78;5077800;28;20021;-78
2024/01/22 01:22:38;;;;;;;10.05;5.38;;;;;;;-142.57;75.06;55248.47;5077903;28;20059;-82
2024/01/22 01:25:04;;;;;;;12.57;5.95;;;;;;;-142.57;74.17;55179.75;5075858;28;20041;-85
2024/01/22 01:27:29;;;;;;;9.40;5.47;;;;;;;-142.57;74.39;55224.22;5069428;28;20040;-78
2024/01/22 01:29:58;;;;;;;10.63;5.53;;;;;;;-142.57;77.31;55224.22;5076177;28;20029;-78
2024/01/22 01:32:24;;;;;;;8.07;4.88;;;;;;;-142.57;75.90;55208.06;5075674;28;20069;-80
2024/01/22 01:34:52;;;;;;;8.07;4.80;;;;;;;-142.57;75.26;55212.09;5077014;28;20033;-82
2024/01/22 01:37:17;;;;;;;11.07;5.43;;;;;;;-142.57;77.35;55222.19;5077125;28;20023;-83
2024/01/22 01:39:43;;;;;;;11.20;5.22;;;;;;;-142.57;76.10;55240.38;5059120;28;20040;-82
2024/01/22 01:42:08;;;;;;;12.90;5.63;;;;;;;-142.57;75.96;55206.03;5035179;28;20043;-81
2024/01/22 01:44:37;;;;;;;9.98;5.55;;;;;;;-142.57;77.74;55210.06;5053628;28;20041;-79
2024/01/22 01:47:04;;;;;;;11.10;5.70;;;;;;;-142.57;77.67;55224.22;5052653;28;20017;-80
2024/01/22 01:49:30;;;;;;;9.82;5.60;;;;;;;-142.57;76.91;55212.09;5053370;28;20120;-79
2024/01/22 01:51:56;;;;;;;11.10;5.60;;;;;;;-142.57;77.54;55236.34;5053058;28;20073;-84
2024/01/22 01:54:23;;;;;;;9.65;5.07;;;;;;;-142.57;76.38;55238.34;5051718;28;20045;-82
2024/01/22 01:56:50;;;;;;;12.02;5.85;;;;;;;-142.57;79.44;55240.38;5053545;28;20048;-82
2024/01/22 01:59:16;;;;;;;12.05;5.80;;;;;;;-142.57;78.57;55224.22;5053782;28;20079;-85
2024/01/22 02:01:41;;;;;;;9.10;5.10;;;;;;;-142.57;79.12;55242.41;5053822;28;20128;-81
2024/01/22 02:04:07;;;;;;;8.98;4.68;;;;;;;-142.57;80.28;55238.34;5052928;28;20212;-80
2024/01/22 02:06:33;;;;;;;10.40;5.40;;;;;;;-142.57;77.75;55230.28;5052498;28;20425;-80
2024/01/22 02:08:58;;;;;;;10.35;5.32;;;;;;;-142.57;77.76;55256.53;5052761;28;20047;-79
2024/01/22 02:11:24;;;;;;;9.45;4.80;;;;;;;-142.57;74.44;55228.25;5053132;28;20037;-82
2024/01/22 02:13:49;;;;;;;12.63;5.15;;;;;;;-142.57;75.50;55238.34;5052609;28;20450;-80
2024/01/22 02:16:18;;;;;;;8.80;4.85;;;;;;;-142.57;72.68;55252.50;5051427;28;20132;-83
2024/01/22 02:18:45;;;;;;;8.07;4.55;;;;;;;-142.57;75.85;55236.34;5052604;28;20044;-78
2024/01/22 02:21:11;;;;;;;8.80;4.30;;;;;;;-142.57;77.13;55236.34;5052821;28;20033;-80
2024/01/22 02:23:36;;;;;;;7.20;3.83;;;;;;;-142.57;72.03;55236.34;5052491;28;20435;-79
2024/01/22 02:26:02;;;;;;;10.93;3.90;;;;;;;-142.57;69.66;55220.16;5052610;28;20029;-82
2024/01/22 02:28:28;;;;;;;5.70;3.22;;;;;;;-142.57;69.45;55228.25;5052392;28;20029;-80
2024/01/22 02:30:54;;;;;;;5.43;3.25;;;;;;;-142.57;69.39;55222.19;5051882;28;20091;-81
2024/01/22 02:33:20;;;;;;;6.35;3.33;;;;;;;-142.57;69.01;55220.16;5054081;28;20053;-81
2024/01/22 02:35:45;;;;;;;7.20;3.55;;;;;;;-142.57;69.78;55195.94;5054787;28;20171;-83
2024/01/22 02:38:14;;;;;;;7.18;3.70;;;;;;;-142.57;74.20;55264.63;5056542;28;20128;-84
2024/01/22 02:40:39;;;;;;;6.57;3.47;;;;;;;-142.57;76.65;55234.31;5056075;28;20548;-84
2024/01/22 02:43:04;;;;;;;7.63;3.95;;;;;;;-142.57;69.43;55250.47;5055679;28;20029;-81
2024/01/22 02:45:30;;;;;;;7.95;3.67;;;;;;;-142.57;68.51;55204.00;5055768;28;20440;-79
2024/01/22 02:47:56;;;;;;;8.30;3.70;;;;;;;-142.57;67.87;55193.91;5056128;28;20029;-81
2024/01/22 02:50:21;;;;;;;6.93;3.97;;;;;;;-142.57;71.92;55236.34;5055835;28;20514;-83
2024/01/22 02:52:47;;;;;;;6.22;3.80;;;;;;;-142.57;69.71;55246.44;5056050;28;20041;-80
2024/01/22 02:55:12;;;;;;;16.50;3.97;;;;;;;-142.57;74.07;55252.50;5055789;28;20029;-82
2024/01/22 02:57:38;;;;;;;9.15;4.07;;;;;;;-142.57;74.28;55258.56;5056166;28;20047;-81
2024/01/22 03:00:05;;;;;;;5.70;3.20;;;;;;;-142.57;70.94;55226.22;5054567;28;20037;-82
2024/01/22 03:02:31;;;;;;;5.78;3.40;;;;;;;-142.57;70.36;55244.41;5054527;28;20068;-81
2024/01/22 03:08:45;;;;;;;5.97;3.38;;;;;;;-142.57;65.68;55232.28;5058157;28;20080;-80
2024/01/22 03:11:11;;;;;;;6.57;3.05;;;;;;;-142.57;65.79;55218.16;5064758;28;20021;-80
2024/01/22 03:13:37;;;;;;;4.55;2.80;;;;;;;-142.57;66.00;55187.84;5064416;28;20059;-81
2024/01/22 03:16:02;;;;;;;6.70;3.25;;;;;;;-142.57;72.83;55220.16;5021030;28;20045;-80
2024/01/22 03:18:28;;;;;;;5.82;2.88;;;;;;;-142.57;71.67;55212.09;5059279;28;20025;-80
2024/01/22 03:20:54;;;;;;;7.28;2.72;;;;;;;-142.57;70.10;55226.22;5053091;28;20046;-79
2024/01/22 03:23:22;;;;;;;4.65;2.50;;;;;;;-142.57;73.18;55252.50;5062218;28;20033;-79
2024/01/22 03:25:47;;;;;;;5.32;2.95;;;;;;;-142.57;67.81;55228.25;5046266;28;20079;-82
2024/01/22 03:28:13;;;;;;;3.83;2.55;;;;;;;-142.57;71.28;55208.06;5046051;28;20029;-84
2024/01/22 03:30:39;;;;;;;3.78;2.42;;;;;;;-142.57;67.60;55216.13;5036096;28;20033;-81
2024/01/22 03:33:04;;;;;;;4.32;2.40;;;;;;;-142.57;70.34;55232.28;5053231;28;20068;-82
2024/01/22 03:35:30;;;;;;;4.10;2.50;;;;;;;-142.57;66.81;55216.13;5047124;28;20037;-81
2024/01/22 03:37:55;;;;;;;5.00;2.70;;;;;;;-142.57;67.27;55157.53;5040207;28;20063;-82
2024/01/22 03:40:21;;;;;;;5.90;2.90;;;;;;;-142.57;67.54;55165.63;5048829;28;20389;-86
2024/01/22 03:42:49;;;;;;;5.47;2.90;;;;;;;-142.57;68.02;55149.47;5050720;28;20071;-84
2024/01/22 03:45:16;;;;;;;3.72;2.30;;;;;;;-142.57;70.41;55167.66;5035302;28;20437;-83
2024/01/22 03:47:41;;;;;;;7.60;2.63;;;;;;;-142.57;73.84;55155.53;5039914;28;20398;-83
2024/01/22 03:50:08;;;;;;;7.30;2.45;;;;;;;-142.57;73.68;55177.75;5049223;28;20048;-83
2024/01/22 03:52:36;;;;;;;5.80;2.78;;;;;;;-142.57;66.10;55175.72;5056441;28;20041;-81
2024/01/22 03:55:02;;;;;;;4.80;2.53;;;;;;;-142.57;69.28;55204.00;5051927;28;20056;-82
2024/01/22 03:57:28;;;;;;;4.72;2.40;;;;;;;-142.57;66.26;55183.81;5049568;28;20032;-84
2024/01/22 03:59:53;;;;;;;4.97;2.47;;;;;;;-142.57;67.07;55183.81;5061589;28;20098;-82
2024/01/22 04:02:19;;;;;;;4.65;2.53;;;;;;;-142.57;65.07;55187.84;5038102;28;20037;-82
2024/01/22 04:04:44;;;;;;;3.75;2.42;;;;;;;-142.57;66.51;55187.84;5035681;28;20437;-84
2024/01/22 04:07:09;;;;;;;4.90;2.63;;;;;;;-142.57;68.54;55202.00;5046353;28;20075;-85
2024/01/22 04:09:36;;;;;;;5.60;2.92;;;;;;;-142.57;64.75;55177.75;5040418;28;20029;-83
2024/01/22 04:12:03;;;;;;;6.65;2.90;;;;;;;-142.57;65.54;55151.47;5035907;28;20029;-85
2024/01/22 04:14:29;;;;;;;5.70;2.90;;;;;;;-142.57;70.14;55173.72;5043396;28;20398;-83
2024/01/22 04:16:55;;;;;;;8.48;3.15;;;;;;;-142.57;70.28;55220.16;5053060;28;20049;-84
2024/01/22 04:19:20;;;;;;;5.88;3.25;;;;;;;-142.57;66.71;55199.97;5043237;28;20033;-80
2024/01/22 04:21:46;;;;;;;4.72;2.92;;;;;;;-142.57;69.44;55179.75;5049206;28;20029;-83
2024/01/22 04:24:15;;;;;;;5.95;3.08;;;;;;;-142.57;70.89;55195.94;5050870;28;20025;-81
2024/01/22 04:26:40;;;;;;;6.18;3.30;;;;;;;-142.57;68.07;55212.09;5036117;28;20029;-86
2024/01/22 04:29:07;;;;;;;5.57;3.10;;;;;;;-142.57;67.22;55191.88;5060417;28;20032;-82
2024/01/22 04:31:32;;;;;;;6.53;3.20;;;;;;;-142.57;66.83;55171.69;5050827;28;20048;-80
2024/01/22 04:33:58;;;;;;;7.60;3.40;;;;;;;-142.57;68.31;55195.94;5036856;28;20072;-85
2024/01/22 04:36:23;;;;;;;6.30;3.08;;;;;;;-142.57;67.62;55195.94;5036996;28;20468;-84
2024/01/22 04:38:50;;;;;;;5.93;3.00;;;;;;;-142.57;68.72;55177.75;5050621;28;20041;-80
2024/01/22 04:41:15;;;;;;;11.82;3.47;;;;;;;-142.57;66.47;55195.94;5063200;28;20511;-84
2024/01/22 04:43:41;;;;;;;8.77;3.88;;;;;;;-142.57;66.64;55191.88;5053735;28;20041;-84
2024/01/22 04:46:07;;;;;;;11.52;3.85;;;;;;;-142.57;66.83;55173.72;5049788;28;20118;-83
2024/01/22 04:48:32;;;;;;;13.70;4.30;;;;;;;-142.57;66.89;55163.59;5038076;28;20025;-79
2024/01/22 04:50:58;;;;;;;12.43;3.88;;;;;;;-142.57;74.20;55232.28;5045147;28;20059;-82
2024/01/22 04:53:23;;;;;;;6.25;3.88;;;;;;;-142.57;73.91;55193.91;5037315;28;20029;-84
2024/01/22 04:55:49;;;;;;;14.55;3.58;;;;;;;-142.57;68.14;55195.94;5052016;28;20034;-87
2024/01/22 04:58:14;;;;;;;6.28;3.20;;;;;;;-142.57;67.24;55187.84;5050750;28;20025;-86
2024/01/22 05:00:40;;;;;;;6.78;3.10;;;;;;;-142.57;68.64;55147.44;5054903;28;20039;-85
2024/01/22 05:03:05;;;;;;;9.20;3.25;;;;;;;-142.57;71.55;55195.94;5056265;28;20033;-84
2024/01/22 05:05:32;;;;;;;11.05;3.35;;;;;;;-142.57;71.24;55191.88;5057498;28;20037;-86
2024/01/22 05:07:57;;;;;;;5.55;2.95;;;;;;;-142.57;69.48;55242.41;5057299;28;20075;-83
2024/01/22 05:10:23;;;;;;;9.52;3.08;;;;;;;-142.57;66.14;55228.25;5057128;28;20089;-85
2024/01/22 05:12:48;;;;;;;7.93;3.38;;;;;;;-142.57;65.15;55139.38;5054912;28;20386;-80
2024/01/22 05:15:15;;;;;;;6.35;2.78;;;;;;;-142.57;65.05;55151.47;5055755;28;20040;-82
2024/01/22 05:17:44;;;;;;;5.63;2.85;;;;;;;-142.57;64.71;55139.38;5055505;28;20033;-83
2024/01/22 05:20:10;;;;;;;6.43;3.35;;;;;;;-142.57;69.93;55193.91;5055013;28;20041;-86
2024/01/22 05:22:35;;;;;;;5.78;2.83;;;;;;;-142.57;73.58;55191.88;5058049;28;20037;-88
2024/01/22 05:25:01;;;;;;;5.97;3.05;;;;;;;-142.57;67.08;55216.13;5056627;28;20040;-86
2024/01/22 05:27:29;;;;;;;7.60;3.75;;;;;;;-142.57;70.91;55208.06;5056548;28;20481;-84
2024/01/22 05:29:54;;;;;;;8.73;3.20;;;;;;;-142.57;71.86;55232.28;5056169;28;20772;-82
2024/01/22 05:32:20;;;;;;;5.72;3.30;;;;;;;-142.57;73.86;55274.72;5056713;28;20075;-86
2024/01/22 05:34:46;;;;;;;15.50;3.80;;;;;;;-142.57;67.25;55226.22;5059088;28;20110;-91
2024/01/22 05:37:11;;;;;;;17.80;3.75;;;;;;;-142.57;62.72;55185.81;5062662;28;20033;-90
2024/01/22 05:39:37;;;;;;;7.68;3.50;;;;;;;-142.57;65.87;55161.59;5058104;28;20104;-88
2024/01/22 05:42:03;;;;;;;12.48;3.60;;;;;;;-142.57;68.19;55163.59;5057842;28;20065;-83
2024/01/22 05:44:29;;;;;;;6.50;3.80;;;;;;;-142.57;69.95;55191.88;5060318;28;20049;-87
2024/01/22 05:46:55;;;;;;;14.57;3.90;;;;;;;-142.57;69.51;55197.94;5058119;28;20029;-89
2024/01/22 05:49:21;;;;;;;13.85;3.92;;;;;;;-142.57;66.08;55175.72;5057065;28;20029;-85
2024/01/22 05:51:47;;;;;;;8.18;4.15;;;;;;;-142.57;67.50;55226.22;5059258;28;20036;-86
2024/01/22 05:57:41;;;;;;;15.98;3.75;;;;;;;-142.57;70.88;55187.84;5077186;28;20063;-81
2024/01/22 06:00:12;;;;;;;10.68;4.22;;;;;;;-142.57;73.81;55197.94;5076420;28;20024;-88
2024/01/22 06:02:40;;;;;;;11.57;3.75;;;;;;;-142.57;76.71;55191.88;5066842;28;20125;-87
2024/01/22 06:05:06;;;;;;;17.70;4.57;;;;;;;-142.57;75.64;55206.03;5052473;28;20056;-85
2024/01/22 06:07:32;;;;;;;11.93;4.60;;;;;;;-142.57;69.05;55183.81;5042773;28;20045;-88
2024/01/22 06:10:00;;;;;;;11.57;4.32;;;;;;;-142.57;67.35;55167.66;5047812;28;20545;-85
2024/01/22 06:12:26;;;;;;;12.88;4.20;;;;;;;-142.57;70.41;55195.94;5049122;28;20029;-88
2024/01/22 06:14:51;;;;;;;15.13;4.00;;;;;;;-142.57;74.39;55199.97;5062612;28;20021;-88
2024/01/22 06:17:17;;;;;;;20.50;3.95;;;;;;;-142.57;73.57;55189.88;5043430;28;20033;-84
2024/01/22 06:19:43;;;;;;;12.88;4.88;;;;;;;-142.57;66.50;55175.72;5047690;28;20048;-85
2024/01/22 06:22:08;;;;;;;12.88;5.18;;;;;;;-142.57;65.97;55175.72;5042564;28;20048;-83
2024/01/22 06:24:36;;;;;;;8.60;4.28;;;;;;;-142.57;66.33;55171.69;5040347;28;20045;-82
2024/01/22 06:27:01;;;;;;;9.63;4.28;;;;;;;-142.57;64.90;55195.94;5050453;28;20400;-83
2024/01/22 06:29:27;;;;;;;9.55;3.40;;;;;;;-142.57;64.55;55141.38;5053201;28;20031;-84
2024/01/22 06:31:52;;;;;;;8.32;3.17;;;;;;;-142.57;64.87;55119.16;5044293;28;20571;-86
2024/01/22 06:34:18;;;;;;;7.45;3.22;;;;;;;-142.57;65.53;55127.25;5049808;28;20208;-86
2024/01/22 06:36:44;;;;;;;9.07;3.30;;;;;;;-142.57;67.29;55139.38;5043047;28;20078;-86
2024/01/22 06:39:09;;;;;;;9.63;3.08;;;;;;;-142.57;68.06;55111.06;5056144;28;20025;-83
2024/01/22 06:41:36;;;;;;;11.00;3.22;;;;;;;-142.57;68.79;55103.00;5049513;28;20044;-84
2024/01/22 06:44:05;;;;;;;10.38;4.68;;;;;;;-142.57;70.01;55135.31;5052783;28;20108;-86
2024/01/22 06:46:30;;;;;;;27.02;5.88;;;;;;;-142.57;74.07;55133.31;5033707;28;20040;-81
2024/01/22 06:48:56;;;;;;;19.73;4.47;;;;;;;-142.57;73.95;55137.34;5058855;28;20067;-85
2024/01/22 06:51:24;;;;;;;34.42;4.90;;;;;;;-142.57;73.64;55155.53;5057544;28;20032;-86
2024/01/22 06:53:50;;;;;;;30.27;4.88;;;;;;;-142.57;74.39;55181.78;5049444;28;20112;-85
2024/01/22 06:56:16;;;;;;;22.38;5.43;;;;;;;-142.57;72.58;55191.88;5050612;28;20552;-86
2024/01/22 06:58:44;;;;;;;34.60;5.78;;;;;;;-142.57;71.77;55193.91;5046203;28;20056;-85
2024/01/22 07:01:22;;;;;;;48.33;5.63;;;;;;;-142.57;70.07;55264.63;5044771;28;20045;-87
2024/01/22 07:03:48;;;;;;;117.10;11.75;;;;;;;-142.57;68.50;55244.41;5029448;28;20123;-87
2024/01/22 07:06:13;;;;;;;71.43;9.00;;;;;;;-142.57;64.65;55260.56;5053367;28;20482;-87
2024/01/22 07:08:39;;;;;;;85.97;9.50;;;;;;;-142.57;63.28;55300.97;5051065;28;20034;-86
2024/01/22 07:11:22;;;;;;;111.38;10.13;;;;;;;-142.57;63.61;55284.81;5049033;28;20049;-88
2024/01/22 07:13:48;;;;;;;66.78;7.85;;;;;;;-142.57;61.00;55284.81;5050094;28;20041;-85
2024/01/22 07:16:13;;;;;;;65.45;9.82;;;;;;;-142.57;62.27;55296.94;5051526;28;20033;-86
2024/01/22 07:18:39;;;;;;;21.92;6.70;;;;;;;-142.57;61.20;55309.06;5050683;28;20446;-85
2024/01/22 07:21:08;;;;;;;20.05;5.43;;;;;;;-142.57;59.93;55242.41;5050279;28;20033;-85
2024/01/22 07:23:34;;;;;;;67.13;7.13;;;;;;;-142.57;60.61;55341.38;5072129;22;20056;-88
2024/01/22 07:26:02;;;;;;;187.98;18.13;;;;;;;-142.57;58.98;55436.34;5047237;28;20459;-90
2024/01/22 07:28:28;;;;;;;64.45;7.93;;;;;;;-142.57;55.33;55527.28;5041701;28;20037;-89
2024/01/22 07:30:53;;;;;;;63.92;8.32;;;;;;;-142.57;51.98;55595.97;5047585;28;20026;-88
2024/01/22 07:33:19;;;;;;;45.17;7.85;;;;;;;-142.57;49.90;55680.81;5045214;28;20033;-86
2024/01/22 07:35:44;;;;;;;56.08;7.88;;;;;;;-142.57;49.12;55751.53;5043078;28;20061;-89
2024/01/22 07:38:10;;;;;;;44.50;6.47;;;;;;;-142.57;47.51;55682.84;5040834;28;20037;-88
2024/01/22 07:40:35;;;;;;;45.08;8.05;;;;;;;-142.57;46.75;55798.00;5042237;28;20111;-88
2024/01/22 07:43:02;;;;;;;36.30;7.07;;;;;;;-142.57;45.48;55820.25;5041791;28;20502;-88
2024/01/22 07:45:30;;;;;;;26.45;6.28;;;;;;;-142.57;44.86;55850.56;5025513;28;20101;-86
2024/01/22 07:47:58;;;;;;;46.25;7.40;;;;;;;-142.57;43.75;56042.50;5027607;28;20449;-89
2024/01/22 07:50:24;;;;;;;24.13;7.43;;;;;;;-142.57;41.38;56159.72;5038813;28;20037;-86
2024/01/22 07:52:50;;;;;;;40.45;8.77;;;;;;;-142.57;40.80;56177.91;5035388;28;20052;-86
2024/01/22 07:55:18;;;;;;;35.78;8.77;;;;;;;-142.57;41.18;56076.88;5037213;28;20041;-86
2024/01/22 07:57:44;;;;;;;40.65;9.27;;;;;;;-142.57;41.57;55931.38;5035656;28;20356;-85
2024/01/22 08:00:11;;;;;;;34.38;7.88;;;;;;;-142.57;40.11;56048.56;5036837;28;20086;-85
2024/01/22 08:02:40;;;;;;;28.88;8.45;;;;;;;-142.57;41.05;55957.66;5036775;28;20044;-86
2024/01/22 08:05:43;;;;;;;31.80;8.60;;;;;;;-142.57;38.38;56139.50;5044571;28;20057;-87
2024/01/22 08:08:09;;;;;;;26.80;8.70;;;;;;;-142.57;39.61;56000.06;5058793;28;20025;-87
2024/01/22 08:10:37;;;;;;;29.45;8.20;;;;;;;-142.57;37.07;56194.06;5055137;28;20025;-85
2024/01/22 08:13:11;;;;;;;27.52;8.35;;;;;;;-142.57;38.11;56161.72;5046419;28;20037;-88
2024/01/22 08:15:37;;;;;;;23.50;9.25;;;;;;;-142.57;38.06;56107.19;5044085;28;20033;-87
2024/01/22 08:18:06;;;;;;;34.97;12.45;;;;;;;-142.57;40.26;55769.72;5035899;28;20573;-82
2024/01/22 08:20:31;;;;;;;47.53;13.80;;;;;;;-142.57;46.06;55468.69;5034752;28;20033;-84
2024/01/22 08:22:57;;;;;;;36.05;10.80;;;;;;;-142.57;50.05;55438.38;5035740;28;20103;-87
2024/01/22 08:25:27;;;;;;;26.92;10.45;;;;;;;-142.57;51.95;55440.38;5034332;28;20109;-82
2024/01/22 08:27:54;;;;;;;23.33;10.32;;;;;;;-142.57;51.70;55486.84;5032812;28;20083;-82
2024/01/22 08:30:20;;;;;;;23.92;9.43;;;;;;;-142.57;50.20;55442.41;5032999;28;20034;-82
2024/01/22 08:32:45;;;;;;;31.88;9.60;;;;;;;-142.57;51.95;55361.59;5033641;28;20111;-84
2024/01/22 08:35:16;;;;;;;38.40;8.43;;;;;;;-142.57;52.63;55406.03;5033400;28;20117;-88
2024/01/22 08:37:45;;;;;;;42.55;9.45;;;;;;;-142.57;54.50;55337.34;5033708;28;20037;-85
2024/01/22 08:40:11;;;;;;;23.95;8.30;;;;;;;-142.57;54.84;55309.06;5038838;28;20030;-81
2024/01/22 08:42:36;;;;;;;25.10;8.07;;;;;;;-142.57;54.75;55341.38;5033558;28;20116;-84
2024/01/22 08:45:04;;;;;;;14.13;6.25;;;;;;;-142.57;55.55;55410.09;5034445;28;20072;-82
2024/01/22 08:47:30;;;;;;;26.95;6.20;;;;;;;-142.57;56.32;55353.50;5034651;28;20061;-84
2024/01/22 08:49:55;;;;;;;27.77;6.40;;;;;;;-142.57;57.74;55377.75;5034113;28;20034;-80
2024/01/22 08:52:21;;;;;;;26.58;10.38;;;;;;;-142.57;56.84;55337.34;5033682;28;20065;-79
2024/01/22 08:54:47;;;;;;;20.98;9.10;;;;;;;-142.57;56.17;55361.59;5033471;28;20090;-79
2024/01/22 08:57:13;;;;;;;21.60;6.88;;;;;;;-142.57;55.41;55381.81;5033848;28;20033;-81
2024/01/22 08:59:38;;;;;;;20.92;6.63;;;;;;;-142.57;55.60;55389.88;5032588;28;20387;-81
2024/01/22 09:02:04;;;;;;;33.85;6.88;;;;;;;-142.57;56.83;55446.44;5034009;28;20490;-80
2024/01/22 09:04:30;;;;;;;19.10;6.45;;;;;;;-142.57;54.63;55482.81;5034368;28;20073;-80
2024/01/22 09:06:58;;;;;;;20.08;6.65;;;;;;;-142.57;54.31;55539.38;5033355;28;20041;-80
2024/01/22 09:09:23;;;;;;;42.22;7.15;;;;;;;-142.57;52.36;55527.28;5035016;28;20029;-80
2024/01/22 09:11:49;;;;;;;23.42;5.88;;;;;;;-142.57;49.38;55531.31;5034043;28;20508;-82
2024/01/22 09:14:14;;;;;;;19.48;6.35;;;;;;;-142.57;50.37;55527.28;5033710;28;20087;-82
2024/01/22 09:16:40;;;;;;;38.45;7.38;;;;;;;-142.57;52.44;55587.88;5034038;28;20079;-82
2024/01/22 09:19:05;;;;;;;33.45;6.68;;;;;;;-142.57;50.15;55573.75;5033543;28;20037;-80
2024/01/22 09:21:31;;;;;;;22.25;6.88;;;;;;;-142.57;47.92;55537.38;5033815;28;20045;-83
2024/01/22 09:23:57;;;;;;;28.30;7.05;;;;;;;-142.57;49.06;55531.31;5016777;28;20069;-79
2024/01/22 09:26:22;;;;;;;37.22;10.60;;;;;;;-142.57;48.54;55589.91;5034077;28;20076;-83
2024/01/22 09:28:48;;;;;;;16.85;5.85;;;;;;;-142.57;47.42;55591.91;5036107;28;20052;-80
2024/01/22 09:31:14;;;;;;;13.10;5.68;;;;;;;-142.57;46.85;55563.63;5034276;28;20065;-81
2024/01/22 09:33:39;;;;;;;13.18;4.10;;;;;;;-142.57;46.69;55523.22;5032474;28;20034;-82
2024/01/22 09:36:05;;;;;;;15.07;3.95;;;;;;;-142.57;46.10;55545.44;5033778;28;20070;-82
2024/01/22 09:38:31;;;;;;;44.80;6.28;;;;;;;-142.57;47.72;55567.69;5033501;28;20037;-82
2024/01/22 09:40:59;;;;;;;15.82;4.45;;;;;;;-142.57;46.99;55531.31;5033696;28;20037;-81
2024/01/22 09:43:25;;;;;;;15.57;4.22;;;;;;;-142.57;48.45;55541.41;5033282;28;20088;-81
2024/01/22 09:45:54;;;;;;;37.30;6.80;;;;;;;-142.57;51.16;55539.38;5033204;28;20056;-80
2024/01/22 09:48:20;;;;;;;15.57;4.57;;;;;;;-142.57;50.02;55511.09;5033483;28;20029;-81
2024/01/22 09:50:50;;;;;;;45.60;6.57;;;;;;;-142.57;49.75;55527.28;5032322;28;20041;-83
2024/01/22 09:53:17;;;;;;;32.63;5.45;;;;;;;-142.57;49.16;55533.31;5033412;28;20042;-82
2024/01/22 09:55:42;;;;;;;13.38;4.95;;;;;;;-142.57;46.26;55513.13;5033601;28;20479;-82
2024/01/22 09:58:09;;;;;;;24.20;5.03;;;;;;;-142.57;47.37;55561.63;5033542;28;20131;-81
2024/01/22 10:00:39;;;;;;;51.50;5.82;;;;;;;-142.57;46.09;55587.88;5033851;28;20060;-83
2024/01/22 10:03:04;;;;;;;49.33;7.97;;;;;;;-142.57;47.58;55575.75;5033563;28;20037;-82
2024/01/22 10:05:31;;;;;;;29.67;5.82;;;;;;;-142.57;46.21;55591.91;5022510;28;20029;-83
2024/01/22 10:07:57;;;;;;;47.65;7.60;;;;;;;-142.57;49.09;55604.03;5013288;28;20038;-82
2024/01/22 10:10:23;;;;;;;15.43;5.13;;;;;;;-142.57;43.88;55652.53;5017946;28;20037;-82
2024/01/22 10:13:07;;;;;;;21.00;5.00;;;;;;;-142.57;43.45;55608.09;5021907;28;20386;-83
2024/01/22 10:15:34;;;;;;;18.73;5.30;;;;;;;-142.57;42.73;55656.56;5015462;28;20434;-82
2024/01/22 10:18:10;;;;;;;43.42;7.63;;;;;;;-142.57;43.81;55620.22;5027089;28;20033;-84
2024/01/22 10:20:35;;;;;;;23.92;5.85;;;;;;;-142.57;42.86;55622.22;5013936;28;20438;-82
2024/01/22 10:23:01;;;;;;;294.98;25.33;;;;;;;-142.57;43.38;55690.94;5028952;28;20041;-84
2024/01/22 10:25:27;;;;;;;48.60;7.05;;;;;;;-142.57;42.88;55733.34;5024933;28;20130;-83
2024/01/22 10:28:19;;;;;;;33.78;7.50;;;;;;;-142.57;42.41;55688.91;5040985;28;20105;-84
2024/01/22 10:31:00;;;;;;;17.95;5.95;;;;;;;-142.57;43.60;55694.97;5038626;28;20034;-84
2024/01/22 10:33:26;;;;;;;26.48;5.80;;;;;;;-142.57;46.34;55721.22;5046402;28;20014;-82
2024/01/22 10:35:51;;;;;;;39.22;6.25;;;;;;;-142.57;47.15;55705.06;5017343;28;20037;-81
2024/01/22 10:38:18;;;;;;;48.83;7.03;;;;;;;-142.57;48.30;55761.66;5025564;28;20037;-84
2024/01/22 10:40:46;;;;;;;27.80;5.55;;;;;;;-142.57;48.59;55701.03;5025538;28;20042;-82
2024/01/22 10:43:17;;;;;;;38.28;7.13;;;;;;;-142.57;50.50;55690.94;5012950;28;20507;-82
2024/01/22 10:45:46;;;;;;;17.40;5.60;;;;;;;-142.57;50.12;55692.94;5012617;28;20507;-82
2024/01/22 10:48:18;;;;;;;28.42;5.47;;;;;;;-142.57;49.21;55692.94;5027103;28;20029;-83
2024/01/22 10:50:44;;;;;;;45.97;6.07;;;;;;;-142.57;50.37;55705.06;5030234;28;20418;-83
2024/01/22 10:53:11;;;;;;;20.42;4.68;;;;;;;-142.57;50.90;55753.56;5019203;28;20080;-83
2024/01/22 10:55:40;;;;;;;9.18;3.67;;;;;;;-142.57;48.47;55745.47;5031261;28;20117;-81
2024/01/22 10:58:21;;;;;;;9.77;3.85;;;;;;;-142.57;46.84;55729.31;5032950;28;20032;-80
2024/01/22 11:00:48;;;;;;;18.33;4.88;;;;;;;-142.57;48.13;55747.50;5022571;28;20079;-82
2024/01/22 11:03:17;;;;;;;12.50;4.25;;;;;;;-142.57;49.38;55737.41;5035771;28;20196;-83
2024/01/22 11:05:46;;;;;;;15.10;4.00;;;;;;;-142.57;49.91;55733.34;5032546;28;20041;-86
2024/01/22 11:08:13;;;;;;;11.43;4.82;;;;;;;-142.57;48.46;55739.41;5020502;28;20029;-84
2024/01/22 11:10:42;;;;;;;11.50;4.65;;;;;;;-142.57;47.89;55733.34;5018359;28;20046;-87
2024/01/22 11:13:08;;;;;;;16.65;5.22;;;;;;;-142.57;47.02;55723.25;5015599;28;20054;-87
2024/01/22 11:15:37;;;;;;;25.02;4.38;;;;;;;-142.57;44.72;55789.94;5027341;28;20030;-88
2024/01/22 11:18:04;;;;;;;23.33;5.43;;;;;;;-142.57;45.69;55783.88;5027194;28;20096;-87
2024/01/22 11:20:31;;;;;;;19.40;4.95;;;;;;;-142.57;46.64;55781.84;5024803;28;20025;-85